Terminal Aerodrome Forecast
Issued by NWS

Home | Current Version | Previous Version | Text Only | Print | Product List | Glossary On
Versions: 1 2 3 4 5 6 7 8 9 10 11 12 13 14 15 16 17 18 19 20 21 22 23 24 25 26
000
FTUS46 KSEW 191100
TAFSEA
TAF
KSEA 191120Z 1912/2018 18006KT P6SM BKN020 OVC045
     FM191900 22008KT P6SM BKN030 BKN050
     FM192200 24008KT P6SM SCT035 BKN060
     FM200200 35005KT P6SM SCT060 BKN120
     FM200600 03005KT P6SM SCT250=

USA.gov is the U.S. government's official web portal to all federal, state and local government web resources and services.